createdAt,value
2019-03-30T00:01:01.034Z,100819.73
2019-03-30T00:03:39.210Z,100816.31
2019-03-30T00:06:14.910Z,100812.33
2019-03-30T00:08:50.216Z,100805.83
2019-03-30T00:11:24.974Z,100805.64
2019-03-30T00:13:59.486Z,100804.41
2019-03-30T00:16:35.059Z,100800.53
2019-03-30T00:19:09.936Z,100803.20
2019-03-30T00:21:45.098Z,100798.78
2019-03-30T00:24:21.451Z,100795.59
2019-03-30T00:26:57.450Z,100796.61
2019-03-30T00:29:38.390Z,100798.92
2019-03-30T00:32:14.170Z,100787.92
2019-03-30T00:34:55.859Z,100789.08
2019-03-30T00:37:30.664Z,100786.23
2019-03-30T00:40:07.358Z,100788.64
2019-03-30T00:42:42.265Z,100790.85
2019-03-30T00:45:18.547Z,100786.59
2019-03-30T00:47:53.790Z,100787.76
2019-03-30T00:50:28.455Z,100789.92
2019-03-30T00:53:03.536Z,100787.55
2019-03-30T00:55:39.847Z,100786.41
2019-03-30T00:58:16.123Z,100785.06
2019-03-30T01:00:51.839Z,100780.67
2019-03-30T01:03:27.152Z,100777.26
2019-03-30T01:06:02.229Z,100776.85
2019-03-30T01:08:38.448Z,100773.38
2019-03-30T01:11:15.473Z,100773.47
2019-03-30T01:13:50.825Z,100767.64
2019-03-30T01:16:25.873Z,100767.47
2019-03-30T01:19:01.414Z,100766.46
2019-03-30T01:21:36.883Z,100753.50
2019-03-30T01:24:11.893Z,100754.63
2019-03-30T01:26:46.620Z,100756.76
2019-03-30T01:29:21.790Z,100751.44
2019-03-30T01:31:56.823Z,100750.66
2019-03-30T01:34:31.643Z,100744.01
2019-03-30T01:37:06.704Z,100747.10
2019-03-30T01:39:42.508Z,100744.86
2019-03-30T01:42:17.148Z,100739.59
2019-03-30T01:44:51.708Z,100732.91
2019-03-30T01:47:26.287Z,100730.62
2019-03-30T01:50:16.215Z,100733.59
2019-03-30T01:52:52.546Z,100729.33
2019-03-30T01:55:27.699Z,100727.64
2019-03-30T01:58:02.992Z,100720.93
2019-03-30T02:00:38.945Z,100716.41
2019-03-30T02:03:13.395Z,100709.50
2019-03-30T02:05:48.646Z,100710.61
2019-03-30T02:08:23.294Z,100708.30
2019-03-30T02:10:58.305Z,100708.29
2019-03-30T02:13:32.982Z,100704.54
2019-03-30T02:16:07.607Z,100702.66
2019-03-30T02:18:43.710Z,100702.63
2019-03-30T02:21:19.047Z,100701.03
2019-03-30T02:23:53.886Z,100702.41
2019-03-30T02:26:30.233Z,100702.59
2019-03-30T02:29:05.042Z,100702.89
2019-03-30T02:31:40.950Z,100701.80
2019-03-30T02:34:17.023Z,100703.33
2019-03-30T02:36:52.260Z,100699.59
2019-03-30T02:39:27.201Z,100697.69
2019-03-30T02:42:02.026Z,100693.92
2019-03-30T02:44:36.650Z,100700.41
2019-03-30T02:47:12.127Z,100695.67
2019-03-30T02:49:47.206Z,100699.51
2019-03-30T02:52:22.770Z,100695.30
2019-03-30T02:54:59.890Z,100693.61
2019-03-30T02:57:34.446Z,100696.33
2019-03-30T03:00:14.585Z,100695.69
2019-03-30T03:02:49.660Z,100691.43
2019-03-30T03:05:24.431Z,100688.19
2019-03-30T03:07:59.356Z,100684.64
2019-03-30T03:10:35.296Z,100680.97
2019-03-30T03:13:10.147Z,100684.23
2019-03-30T03:15:44.935Z,100683.38
2019-03-30T03:18:19.514Z,100682.63
2019-03-30T03:21:07.571Z,100677.54
2019-03-30T03:23:44.424Z,100674.95
2019-03-30T03:26:19.170Z,100679.16
2019-03-30T03:28:54.507Z,100677.72
2019-03-30T03:31:29.366Z,100675.77
2019-03-30T03:34:04.342Z,100676.57
2019-03-30T03:36:39.119Z,100671.73
2019-03-30T03:39:13.717Z,100672.61
2019-03-30T03:41:48.733Z,100668.31
2019-03-30T03:44:24.548Z,100667.96
2019-03-30T03:46:59.541Z,100668.45
2019-03-30T03:49:34.830Z,100666.02
2019-03-30T03:52:09.791Z,100663.92
2019-03-30T03:54:46.311Z,100665.66
2019-03-30T03:57:29.041Z,100664.47
2019-03-30T04:00:08.967Z,100659.83
2019-03-30T04:02:45.596Z,100653.90
2019-03-30T04:05:23.807Z,100647.11
2019-03-30T04:08:05.056Z,100645.22
2019-03-30T04:10:46.244Z,100642.33
2019-03-30T04:13:25.427Z,100641.95
2019-03-30T04:15:59.945Z,100640.13
2019-03-30T04:18:35.114Z,100637.89
2019-03-30T04:21:10.438Z,100643.47
2019-03-30T04:23:44.867Z,100638.19
2019-03-30T04:26:19.923Z,100635.21
2019-03-30T04:28:54.525Z,100638.73
2019-03-30T04:31:29.655Z,100642.03
2019-03-30T04:34:04.814Z,100640.02
2019-03-30T04:36:39.642Z,100631.56
2019-03-30T04:39:14.664Z,100629.52
2019-03-30T04:41:50.006Z,100624.47
2019-03-30T04:44:24.648Z,100624.53
2019-03-30T04:46:59.424Z,100625.45
2019-03-30T04:49:34.464Z,100617.93
2019-03-30T04:52:09.167Z,100617.93
2019-03-30T04:54:43.715Z,100614.96
2019-03-30T04:57:21.368Z,100621.92
2019-03-30T04:59:56.257Z,100614.67
2019-03-30T05:02:31.452Z,100621.05
2019-03-30T05:05:06.974Z,100614.92
2019-03-30T05:07:42.130Z,100614.55
2019-03-30T05:10:17.042Z,100613.89
2019-03-30T05:12:53.019Z,100614.73
2019-03-30T05:15:27.538Z,100615.88
2019-03-30T05:18:02.652Z,100613.78
2019-03-30T05:20:37.686Z,100611.38
2019-03-30T05:23:12.551Z,100609.48
2019-03-30T05:25:47.300Z,100607.44
2019-03-30T05:28:22.328Z,100609.20
2019-03-30T05:30:59.351Z,100609.19
2019-03-30T05:33:35.369Z,100609.08
2019-03-30T05:36:10.394Z,100610.91
2019-03-30T05:38:45.254Z,100610.59
2019-03-30T05:41:20.244Z,100609.33
2019-03-30T05:43:56.040Z,100608.75
2019-03-30T05:46:31.198Z,100607.66
2019-03-30T05:49:05.928Z,100604.77
2019-03-30T05:51:40.805Z,100599.00
2019-03-30T05:54:17.369Z,100597.00
2019-03-30T05:56:52.480Z,100596.00
2019-03-30T05:59:27.650Z,100592.45
2019-03-30T06:02:02.368Z,100588.94
2019-03-30T06:04:36.878Z,100585.63
2019-03-30T06:07:12.830Z,100587.80
2019-03-30T06:09:47.721Z,100586.37
2019-03-30T06:12:22.495Z,100576.42
2019-03-30T06:14:57.673Z,100575.09
2019-03-30T06:17:32.275Z,100574.62
2019-03-30T06:20:10.560Z,100571.94
2019-03-30T06:22:45.329Z,100570.32
2019-03-30T06:25:20.042Z,100564.14
2019-03-30T06:27:56.183Z,100581.06
2019-03-30T06:30:31.421Z,100578.80
2019-03-30T06:33:07.675Z,100579.87
2019-03-30T06:35:44.271Z,100580.55
2019-03-30T06:38:19.971Z,100580.36
2019-03-30T06:40:54.553Z,100582.81
2019-03-30T06:43:29.492Z,100581.49
2019-03-30T06:46:06.663Z,100589.39
2019-03-30T06:48:41.214Z,100589.23
2019-03-30T06:51:16.225Z,100584.03
2019-03-30T06:53:50.929Z,100586.28
2019-03-30T06:56:27.610Z,100589.13
2019-03-30T06:59:04.134Z,100583.83
2019-03-30T07:01:39.722Z,100588.11
2019-03-30T07:04:15.563Z,100592.70
2019-03-30T07:06:53.186Z,100588.95
2019-03-30T07:09:32.572Z,100591.80
2019-03-30T07:12:08.989Z,100588.20
2019-03-30T07:14:51.560Z,100594.31
2019-03-30T07:17:27.003Z,100596.80
2019-03-30T07:20:19.827Z,100594.04
2019-03-30T07:23:10.678Z,100594.52
2019-03-30T07:25:48.201Z,100596.28
2019-03-30T07:28:22.777Z,100595.75
2019-03-30T07:30:58.066Z,100594.77
2019-03-30T07:33:32.673Z,100593.11
2019-03-30T07:36:07.518Z,100587.53
2019-03-30T07:38:43.814Z,100591.59
2019-03-30T07:41:21.311Z,100586.47
2019-03-30T07:43:56.323Z,100588.23
2019-03-30T07:46:31.375Z,100587.07
2019-03-30T07:49:07.195Z,100591.32
2019-03-30T07:51:42.281Z,100589.83
2019-03-30T07:54:20.934Z,100591.48
2019-03-30T07:57:05.384Z,100589.50
2019-03-30T07:59:48.218Z,100587.59
2019-03-30T08:02:24.425Z,100587.90
2019-03-30T08:05:00.986Z,100589.13
2019-03-30T08:07:37.951Z,100588.93
2019-03-30T08:10:14.345Z,100583.98
2019-03-30T08:12:50.414Z,100579.31
2019-03-30T08:15:26.707Z,100581.70
2019-03-30T08:18:03.731Z,100578.03
2019-03-30T08:20:38.908Z,100582.16
2019-03-30T08:23:14.341Z,100576.42
2019-03-30T08:25:50.007Z,100582.05
2019-03-30T08:28:25.170Z,100583.10
2019-03-30T08:31:01.426Z,100579.62
2019-03-30T08:33:36.175Z,100575.19
2019-03-30T08:36:11.885Z,100577.53
2019-03-30T08:38:47.668Z,100572.19
2019-03-30T08:41:22.667Z,100567.88
2019-03-30T08:43:59.148Z,100566.66
2019-03-30T08:46:34.595Z,100573.13
2019-03-30T08:49:09.405Z,100572.00
2019-03-30T08:51:45.734Z,100569.58
2019-03-30T08:54:20.714Z,100569.90
2019-03-30T08:56:57.972Z,100561.34
2019-03-30T08:59:34.122Z,100566.70
2019-03-30T09:02:08.903Z,100564.77
2019-03-30T09:04:43.862Z,100557.48
2019-03-30T09:07:19.043Z,100561.56
2019-03-30T09:09:53.701Z,100557.93
2019-03-30T09:12:30.906Z,100561.48
2019-03-30T09:15:09.891Z,100565.41
2019-03-30T09:17:47.572Z,100561.23
2019-03-30T09:20:26.132Z,100562.41
2019-03-30T09:23:02.069Z,100564.73
2019-03-30T09:25:36.775Z,100565.00
2019-03-30T09:28:12.126Z,100555.83
2019-03-30T09:30:48.814Z,100550.33
2019-03-30T09:33:35.731Z,100552.13
2019-03-30T09:36:11.321Z,100550.39
2019-03-30T09:38:49.272Z,100550.17
2019-03-30T09:41:26.499Z,100551.34
2019-03-30T09:44:03.280Z,100547.02
2019-03-30T09:46:39.011Z,100541.64
2019-03-30T09:49:14.344Z,100541.34
2019-03-30T09:51:49.499Z,100538.33
2019-03-30T09:54:25.518Z,100537.77
2019-03-30T09:57:01.701Z,100536.24
2019-03-30T09:59:39.591Z,100539.58
2019-03-30T10:02:16.933Z,100541.61
2019-03-30T10:04:54.156Z,100533.89
2019-03-30T10:07:30.015Z,100533.48
2019-03-30T10:10:12.138Z,100535.11
2019-03-30T10:12:47.854Z,100527.43
2019-03-30T10:15:23.021Z,100525.66
2019-03-30T10:17:59.925Z,100522.40
2019-03-30T10:20:36.158Z,100523.88
2019-03-30T10:23:10.739Z,100534.91
2019-03-30T10:25:49.894Z,100528.27
2019-03-30T10:28:26.748Z,100519.20
2019-03-30T10:31:01.870Z,100518.18
2019-03-30T10:33:39.553Z,100522.56
2019-03-30T10:36:14.706Z,100521.72
2019-03-30T10:38:53.655Z,100519.20
2019-03-30T10:41:30.329Z,100515.89
2019-03-30T10:44:05.695Z,100506.05
2019-03-30T10:46:43.220Z,100519.55
2019-03-30T10:49:26.554Z,100512.23
2019-03-30T10:52:07.888Z,100510.03
2019-03-30T10:54:52.772Z,100510.12
2019-03-30T10:57:33.179Z,100510.09
2019-03-30T11:00:49.239Z,100508.02
2019-03-30T11:03:30.467Z,100502.89
2019-03-30T11:06:08.603Z,100499.14
2019-03-30T11:08:44.930Z,100495.28
2019-03-30T11:11:29.210Z,100492.23
2019-03-30T11:14:07.833Z,100489.78
2019-03-30T11:16:53.005Z,100490.08
2019-03-30T11:19:38.570Z,100487.06
2019-03-30T11:22:21.459Z,100486.97
2019-03-30T11:25:07.967Z,100485.82
2019-03-30T11:27:56.738Z,100488.32
2019-03-30T11:30:36.247Z,100480.98
2019-03-30T11:33:12.389Z,100482.91
2019-03-30T11:35:49.891Z,100486.03
2019-03-30T11:38:26.331Z,100475.91
2019-03-30T11:41:04.355Z,100470.72
2019-03-30T11:43:45.442Z,100468.73
2019-03-30T11:46:20.820Z,100467.67
2019-03-30T11:48:57.233Z,100461.82
2019-03-30T11:51:32.326Z,100462.84
2019-03-30T11:54:11.387Z,100460.78
2019-03-30T11:56:46.098Z,100461.58
2019-03-30T11:59:22.794Z,100463.59
2019-03-30T12:01:58.084Z,100457.16
2019-03-30T12:04:33.564Z,100453.92
2019-03-30T12:07:09.913Z,100453.51
2019-03-30T12:09:47.593Z,100459.05
2019-03-30T12:12:23.449Z,100451.08
2019-03-30T12:15:06.358Z,100455.50
2019-03-30T12:17:42.570Z,100436.50
2019-03-30T12:20:17.503Z,100434.48
2019-03-30T12:22:52.411Z,100433.56
2019-03-30T12:25:35.480Z,100435.00
2019-03-30T12:28:12.767Z,100443.90
2019-03-30T12:30:50.688Z,100431.97
2019-03-30T12:33:26.888Z,100426.01
2019-03-30T12:36:04.776Z,100423.09
2019-03-30T12:38:42.227Z,100419.36
2019-03-30T12:41:19.490Z,100422.48
2019-03-30T12:43:55.753Z,100418.59
2019-03-30T12:46:31.422Z,100411.16
2019-03-30T12:49:06.427Z,100411.06
2019-03-30T12:51:43.664Z,100408.45
2019-03-30T12:54:24.196Z,100406.77
2019-03-30T12:57:00.290Z,100407.80
2019-03-30T12:59:37.163Z,100408.02
2019-03-30T13:02:12.192Z,100395.12
2019-03-30T13:04:47.174Z,100406.91
2019-03-30T13:07:23.507Z,100407.88
2019-03-30T13:09:59.006Z,100399.89
2019-03-30T13:12:33.655Z,100407.39
2019-03-30T13:15:09.735Z,100400.36
2019-03-30T13:17:47.703Z,100396.73
2019-03-30T13:20:26.229Z,100391.70
2019-03-30T13:23:02.109Z,100388.06
2019-03-30T13:25:39.365Z,100390.02
2019-03-30T13:28:16.604Z,100393.94
2019-03-30T13:30:54.457Z,100391.47
2019-03-30T13:33:30.525Z,100381.80
2019-03-30T13:36:06.036Z,100384.95
2019-03-30T13:38:40.978Z,100393.52
2019-03-30T13:41:16.273Z,100395.42
2019-03-30T13:43:51.321Z,100397.91
2019-03-30T13:46:34.841Z,100385.92
2019-03-30T13:49:11.752Z,100383.32
2019-03-30T13:51:48.217Z,100384.66
2019-03-30T13:54:22.936Z,100378.63
2019-03-30T13:56:57.657Z,100370.98
2019-03-30T13:59:33.826Z,100371.09
2019-03-30T14:02:09.545Z,100366.41
2019-03-30T14:04:44.836Z,100360.36
2019-03-30T14:07:20.580Z,100363.64
2019-03-30T14:09:55.625Z,100372.23
2019-03-30T14:12:31.212Z,100360.44
2019-03-30T14:15:09.356Z,100363.45
2019-03-30T14:19:15.948Z,100361.39
2019-03-30T14:21:51.827Z,100352.08
2019-03-30T14:24:30.164Z,100355.27
2019-03-30T14:27:05.759Z,100357.94
2019-03-30T14:29:43.275Z,100348.44
2019-03-30T14:32:18.047Z,100345.41
2019-03-30T14:34:55.883Z,100351.48
2019-03-30T14:37:34.599Z,100347.47
2019-03-30T14:40:11.279Z,100343.20
2019-03-30T14:42:46.271Z,100337.09
2019-03-30T14:45:25.929Z,100342.52
2019-03-30T14:48:05.911Z,100338.05
2019-03-30T14:50:40.906Z,100337.69
2019-03-30T14:53:17.437Z,100341.13
2019-03-30T14:55:53.598Z,100333.30
2019-03-30T14:58:28.288Z,100338.37
2019-03-30T15:01:05.346Z,100343.19
2019-03-30T15:03:41.572Z,100332.73
2019-03-30T15:06:17.075Z,100333.43
2019-03-30T15:09:07.690Z,100332.68
2019-03-30T15:11:43.408Z,100329.05
2019-03-30T15:14:18.268Z,100324.16
2019-03-30T15:16:53.959Z,100324.12
2019-03-30T15:19:29.803Z,100321.06
2019-03-30T15:22:06.829Z,100320.72
2019-03-30T15:24:43.082Z,100321.95
2019-03-30T15:27:17.695Z,100316.05
2019-03-30T15:29:53.459Z,100318.86
2019-03-30T15:32:29.320Z,100316.22
2019-03-30T15:35:08.731Z,100315.66
2019-03-30T15:37:44.627Z,100312.25
2019-03-30T15:40:19.900Z,100314.22
2019-03-30T15:42:57.820Z,100311.98
2019-03-30T15:45:35.877Z,100312.34
2019-03-30T15:48:11.596Z,100316.89
2019-03-30T15:50:46.409Z,100313.69
2019-03-30T15:53:22.060Z,100310.04
2019-03-30T15:55:57.604Z,100309.81
2019-03-30T15:58:33.174Z,100308.37
2019-03-30T16:01:08.307Z,100308.78
2019-03-30T16:03:43.454Z,100307.44
2019-03-30T16:06:19.456Z,100308.23
2019-03-30T16:08:56.650Z,100308.58
2019-03-30T16:11:32.159Z,100303.77
2019-03-30T16:14:08.249Z,100305.91
2019-03-30T16:16:43.904Z,100305.40
2019-03-30T16:19:19.491Z,100304.61
2019-03-30T16:21:55.084Z,100307.04
2019-03-30T16:24:31.538Z,100302.91
2019-03-30T16:27:09.062Z,100306.90
2019-03-30T16:29:45.890Z,100308.32
2019-03-30T16:32:21.103Z,100307.38
2019-03-30T16:34:55.854Z,100308.73
2019-03-30T16:37:31.579Z,100308.92
2019-03-30T16:40:07.039Z,100308.68
2019-03-30T16:42:43.348Z,100310.07
2019-03-30T16:45:18.356Z,100314.88
2019-03-30T16:47:55.998Z,100312.04
2019-03-30T16:50:33.148Z,100309.41
2019-03-30T16:53:15.779Z,100310.55
2019-03-30T16:55:52.770Z,100310.12
2019-03-30T16:58:30.866Z,100306.77
2019-03-30T17:01:07.561Z,100308.56
2019-03-30T17:03:44.065Z,100308.27
2019-03-30T17:06:20.447Z,100303.60
2019-03-30T17:08:55.663Z,100305.23
2019-03-30T17:11:31.543Z,100308.81
2019-03-30T17:14:06.909Z,100307.30
2019-03-30T17:16:44.268Z,100307.26
2019-03-30T17:19:23.173Z,100312.81
2019-03-30T17:21:58.880Z,100310.88
2019-03-30T17:24:37.797Z,100309.04
2019-03-30T17:27:13.296Z,100307.05
2019-03-30T17:29:48.313Z,100308.95
2019-03-30T17:32:26.026Z,100309.62
2019-03-30T17:35:03.008Z,100306.05
2019-03-30T17:37:39.000Z,100308.53
2019-03-30T17:40:14.529Z,100309.33
2019-03-30T17:42:50.146Z,100311.94
2019-03-30T17:45:28.257Z,100311.61
2019-03-30T17:48:04.992Z,100309.17
2019-03-30T17:50:41.720Z,100309.49
2019-03-30T17:53:23.765Z,100317.94
2019-03-30T17:56:02.026Z,100315.17
2019-03-30T17:58:38.497Z,100315.05
2019-03-30T18:01:17.104Z,100319.14
2019-03-30T18:03:53.621Z,100321.57
2019-03-30T18:06:36.008Z,100323.97
2019-03-30T18:09:18.309Z,100319.00
2019-03-30T18:11:57.251Z,100324.49
2019-03-30T18:14:36.127Z,100321.20
2019-03-30T18:17:14.521Z,100321.02
2019-03-30T18:20:05.437Z,100326.88
2019-03-30T18:22:44.012Z,100331.47
2019-03-30T18:25:33.021Z,100329.42
2019-03-30T18:28:08.952Z,100337.16
2019-03-30T18:30:47.983Z,100340.61
2019-03-30T18:33:25.975Z,100344.71
2019-03-30T18:36:02.614Z,100346.68
2019-03-30T18:38:41.820Z,100347.59
2019-03-30T18:41:21.475Z,100349.61
2019-03-30T18:43:57.240Z,100353.36
2019-03-30T18:46:33.894Z,100357.39
2019-03-30T18:49:12.069Z,100356.22
2019-03-30T18:51:51.080Z,100355.96
2019-03-30T18:54:31.501Z,100367.84
2019-03-30T18:57:11.215Z,100367.34
2019-03-30T18:59:50.296Z,100369.61
2019-03-30T19:02:25.981Z,100373.36
2019-03-30T19:05:03.846Z,100376.56
2019-03-30T19:07:41.807Z,100377.58
2019-03-30T19:10:16.565Z,100376.22
2019-03-30T19:12:53.950Z,100375.36
2019-03-30T19:15:30.148Z,100377.20
2019-03-30T19:18:06.300Z,100376.77
2019-03-30T19:20:42.313Z,100374.95
2019-03-30T19:23:17.218Z,100374.92
2019-03-30T19:25:54.484Z,100376.99
2019-03-30T19:28:30.063Z,100380.79
2019-03-30T19:31:12.425Z,100382.00
2019-03-30T19:33:50.558Z,100383.78
2019-03-30T19:36:27.799Z,100388.39
2019-03-30T19:39:04.170Z,100385.05
2019-03-30T19:41:40.683Z,100385.92
2019-03-30T19:44:16.128Z,100386.79
2019-03-30T19:46:51.033Z,100383.86
2019-03-30T19:49:29.944Z,100387.00
2019-03-30T19:52:06.823Z,100392.13
2019-03-30T19:54:43.085Z,100391.12
2019-03-30T19:57:19.393Z,100390.76
2019-03-30T19:59:55.348Z,100389.95
2019-03-30T20:02:31.959Z,100384.88
2019-03-30T20:05:08.853Z,100391.72
2019-03-30T20:07:43.872Z,100390.30
2019-03-30T20:10:23.683Z,100382.96
2019-03-30T20:13:00.086Z,100390.62
2019-03-30T20:15:37.641Z,100391.68
2019-03-30T20:18:15.013Z,100387.56
2019-03-30T20:20:49.814Z,100388.21
2019-03-30T20:23:27.839Z,100390.27
2019-03-30T20:26:05.071Z,100388.26
2019-03-30T20:28:47.346Z,100395.66
2019-03-30T20:31:23.143Z,100391.42
2019-03-30T20:34:01.938Z,100390.73
2019-03-30T20:36:38.664Z,100389.64
2019-03-30T20:39:14.919Z,100398.33
2019-03-30T20:41:50.953Z,100390.53
2019-03-30T20:44:30.095Z,100386.44
2019-03-30T20:47:05.906Z,100386.02
2019-03-30T20:49:43.706Z,100388.06
2019-03-30T20:52:19.391Z,100390.28
2019-03-30T20:54:54.204Z,100388.69
2019-03-30T20:57:31.213Z,100389.30
2019-03-30T21:00:08.284Z,100393.33
2019-03-30T21:02:44.754Z,100396.03
2019-03-30T21:05:20.029Z,100392.82
2019-03-30T21:07:55.163Z,100395.09
2019-03-30T21:10:29.932Z,100398.00
2019-03-30T21:13:05.799Z,100393.88
2019-03-30T21:15:43.045Z,100399.73
2019-03-30T21:18:18.977Z,100399.73
2019-03-30T21:20:56.809Z,100398.52
2019-03-30T21:23:31.476Z,100402.25
2019-03-30T21:26:09.105Z,100400.92
2019-03-30T21:28:45.249Z,100401.14
2019-03-30T21:31:21.298Z,100399.78
2019-03-30T21:33:56.492Z,100401.23
2019-03-30T21:36:32.552Z,100402.42
2019-03-30T21:39:11.371Z,100399.87
2019-03-30T21:41:47.164Z,100399.47
2019-03-30T21:44:23.034Z,100403.98
2019-03-30T21:46:57.901Z,100399.67
2019-03-30T21:49:32.527Z,100400.85
2019-03-30T21:52:07.923Z,100399.33
2019-03-30T21:54:42.635Z,100392.53
2019-03-30T21:57:18.844Z,100394.75
2019-03-30T22:00:08.767Z,100396.06
2019-03-30T22:02:45.989Z,100398.56
2019-03-30T22:05:21.309Z,100405.48
2019-03-30T22:07:57.171Z,100408.81
2019-03-30T22:10:34.524Z,100406.84
2019-03-30T22:13:10.489Z,100402.94
2019-03-30T22:15:45.511Z,100402.71
2019-03-30T22:18:22.531Z,100404.98
2019-03-30T22:20:58.158Z,100409.16
2019-03-30T22:23:34.451Z,100405.34
2019-03-30T22:26:13.299Z,100409.30
2019-03-30T22:28:48.740Z,100408.48
2019-03-30T22:31:25.303Z,100404.12
2019-03-30T22:33:59.856Z,100411.73
2019-03-30T22:36:36.765Z,100411.02
2019-03-30T22:39:12.368Z,100408.86
2019-03-30T22:41:51.138Z,100406.53
2019-03-30T22:44:25.715Z,100406.46
2019-03-30T22:47:00.887Z,100409.62
2019-03-30T22:49:36.063Z,100409.78
2019-03-30T22:52:11.243Z,100414.76
2019-03-30T22:54:46.850Z,100414.81
2019-03-30T22:57:24.172Z,100417.05
2019-03-30T23:00:01.023Z,100416.11
2019-03-30T23:02:39.118Z,100411.59
2019-03-30T23:05:14.675Z,100410.33
2019-03-30T23:07:51.546Z,100410.83
2019-03-30T23:10:28.576Z,100413.80
2019-03-30T23:13:04.209Z,100413.76
2019-03-30T23:15:41.636Z,100410.31
2019-03-30T23:18:17.663Z,100405.77
2019-03-30T23:20:56.109Z,100404.69
2019-03-30T23:23:31.606Z,100408.21
2019-03-30T23:26:08.330Z,100404.45
2019-03-30T23:28:43.785Z,100411.77
2019-03-30T23:31:19.287Z,100410.64
2019-03-30T23:33:53.913Z,100411.73
2019-03-30T23:36:28.946Z,100412.95
2019-03-30T23:39:06.318Z,100416.87
2019-03-30T23:41:41.504Z,100414.59
2019-03-30T23:44:16.741Z,100415.05
2019-03-30T23:46:52.434Z,100415.17
2019-03-30T23:49:27.391Z,100413.72
2019-03-30T23:52:02.172Z,100418.58
2019-03-30T23:54:37.512Z,100416.08
2019-03-30T23:57:13.318Z,100413.39
2019-03-30T23:59:48.047Z,100411.00
